Kezdőlap
METAR-TAF:

METAR-TAF

Repülőterek :

Ames, Iowa, Amerikai Egyesült Államok

földrajzi szélesség: 41-59-26N, földrajzi hosszúság: 093-37-08W, magasság: 288 m

Jelenlegi meteorológiai megfigyelések

A jelentés 1 órával és 2 perccel ezelõtt készült, 11:53 UTC
Észak-északnyugati szél 6 kt
Hőmérséklet -15°C
Páratartalom 85%
Légköri nyomás 1019 hPa
Látótávolság: 16.1 km
Derült ég

METAR: KAMW 151153Z AUTO 34006KT 10SM CLR M15/M17 A3009 RMK AO2 SLP205 T11501172 11128 21150 53004

Idő: 06:55 (12:55 UTC)


TAF: hiányzik

Meteorológiai megfigyelések és előrejelzések több, mint 4000 repülőtéren (METAR és TAF jelentéseket).

A térképen piros és sárga pontok jelzik az elérhető meteorológiai állomásokat.

Mozgassa az egeret a pont fölött, hogy megjelenjen az állomás neve.

Azután kattintson az időjárási megfigyelések és előrejelzések megtekintéséhez.

A térkép megváltoztatása: kattintson a fekete keresztel jelölt zöld gombra ráközelítéshez, a vonallal jelölt zöld gombra távolításhoz, vagy a zöld nyilakra a szomszédos térképek eléréséhez.


METAR-TAF: